메인 페이지
METAR-TAF:

METAR-TAF

공항 :

아테네 국제공항

아테네, 그리스

위도: 37-56N, 경도: 023-56E, 고도: 94m

현재 날씨관측

예보는 18분 전, 23:50시(UTC)에 발표되었습니다.
북북동27kt, 순간 최대 풍속 37kt
온도 3°C
습도 87%
기압 1022 hPa
시정: 7000m
고도 1200ft 상공 구름 조금, 타워링 적운.
고도 2000ft 상공 구름 보통
고도 7000ft 상공 구름 많음
약한비

METAR: LGAV 232350Z 03027G37KT 7000 -RA FEW012TCU SCT020 BKN070 03/01 Q1022 NOSIG

시각: 02:08 (00:08 UTC)

예보

예보는 1 시간 8분 전, 23:00시(UTC)에 발표되었습니다.
예보 대상 시간: 24일 00시부터 24일 24시까지 (UTC)
25kt, 순간 최대 풍속 35kt
시정 10km 이상
고도 1000ft 상공 구름 조금
고도 2000ft 상공 구름 보통
고도 7000ft 상공 구름 많음
확률 40% :
일시적
24일 00시부터 24일 15시까지 (UTC)
시정: 4000m
고도 1000ft 상공 구름 보통
고도 2000ft 상공 구름 많음
고도 6000ft 상공 흐림
확률 30% :
일시적
24일 00시부터 24일 06시까지 (UTC)
시정: 3000m
고도 1000ft 상공 구름 조금
고도 2000ft 상공 흐림
눈, 비

TAF: LGAV 232300Z 2400/2424 36025G35KT 9999 FEW010 SCT020 BKN070 PROB40 TEMPO 2400/2415 4000 RA SCT010 BKN020 OVC060 PROB30 TEMPO 2400/2406 3000 SNRA FEW010 OVC020

4,000개 이상의 공항 관측 자료 및 예보 (METAR 및 TAF 보고).

지도상에서 검색 가능한 기상관측소가 노란 점과 빨간 점으로 표시되어 있습니다.

기상관측소 명을 보려면 표시 위로 마우스를 이동하세요.

날씨 관측과 예보를 보려면 클릭하세요.

지도 변경 : 확대하려면 엑스 표시가 있는 녹색 버튼, 축소하려면 빼기 표시가 있는 녹색 버튼, 다음 페이지의 지도를 보려면 녹색 화살표를 클릭하세요.


METAR-TAF: